createdAt,value
2019-05-06T00:01:53.761Z,84.70
2019-05-06T00:04:35.098Z,85.10
2019-05-06T00:07:15.828Z,84.80
2019-05-06T00:10:00.813Z,84.60
2019-05-06T00:12:44.414Z,85.00
2019-05-06T00:15:24.024Z,85.00
2019-05-06T00:18:07.737Z,85.20
2019-05-06T00:20:50.295Z,85.10
2019-05-06T00:23:38.106Z,85.00
2019-05-06T00:26:34.667Z,84.70
2019-05-06T00:29:21.109Z,85.30
2019-05-06T00:32:04.625Z,84.70
2019-05-06T00:34:51.917Z,85.50
2019-05-06T00:37:36.684Z,85.30
2019-05-06T00:40:39.477Z,85.00
2019-05-06T00:43:23.575Z,84.90
2019-05-06T00:46:05.751Z,85.30
2019-05-06T00:49:20.191Z,84.60
2019-05-06T00:52:34.567Z,85.10
2019-05-06T00:55:29.774Z,84.40
2019-05-06T00:58:30.298Z,83.90
2019-05-06T01:01:26.309Z,84.80
2019-05-06T01:03:59.266Z,84.00
2019-05-06T01:06:44.039Z,84.20
2019-05-06T01:09:25.991Z,84.10
2019-05-06T01:12:10.825Z,83.70
2019-05-06T01:14:56.255Z,83.70
2019-05-06T01:17:38.800Z,83.90
2019-05-06T01:20:19.031Z,84.20
2019-05-06T01:23:01.000Z,85.10
2019-05-06T01:26:30.348Z,84.30
2019-05-06T01:29:17.429Z,84.40
2019-05-06T01:31:56.216Z,84.40
2019-05-06T01:34:37.166Z,85.70
2019-05-06T01:37:20.272Z,85.70
2019-05-06T01:40:16.067Z,85.70
2019-05-06T01:43:06.010Z,85.90
2019-05-06T01:45:54.531Z,84.80
2019-05-06T01:48:53.595Z,84.30
2019-05-06T01:51:35.746Z,84.50
2019-05-06T01:54:20.844Z,85.10
2019-05-06T01:57:09.890Z,86.00
2019-05-06T01:59:53.905Z,86.10
2019-05-06T02:02:34.468Z,85.70
2019-05-06T02:05:24.118Z,86.90
2019-05-06T02:08:06.645Z,86.80
2019-05-06T02:10:49.667Z,85.80
2019-05-06T02:13:29.511Z,86.20
2019-05-06T02:16:14.556Z,86.80
2019-05-06T02:18:57.217Z,87.40
2019-05-06T02:22:13.674Z,87.20
2019-05-06T02:25:18.355Z,86.90
2019-05-06T02:28:14.201Z,86.10
2019-05-06T02:34:25.121Z,86.60
2019-05-06T02:37:29.341Z,86.80
2019-05-06T02:40:29.438Z,87.10
2019-05-06T02:43:27.455Z,86.90
2019-05-06T02:46:26.611Z,85.90
2019-05-06T02:49:28.474Z,86.90
2019-05-06T02:52:15.130Z,85.30
2019-05-06T02:55:12.771Z,85.50
2019-05-06T02:58:33.119Z,85.50
2019-05-06T03:01:23.556Z,85.90
2019-05-06T03:04:07.163Z,86.60
2019-05-06T03:06:49.778Z,86.90
2019-05-06T03:09:37.857Z,87.20
2019-05-06T03:12:22.639Z,86.00
2019-05-06T03:15:06.420Z,86.50
2019-05-06T03:18:05.988Z,86.20
2019-05-06T03:21:03.650Z,85.90
2019-05-06T03:24:03.961Z,85.90
2019-05-06T03:26:56.761Z,86.10
2019-05-06T03:29:35.072Z,85.60
2019-05-06T03:32:23.006Z,85.50
2019-05-06T03:35:19.070Z,85.20
2019-05-06T03:37:46.904Z,85.20
2019-05-06T03:40:36.137Z,85.30
2019-05-06T03:43:17.401Z,85.50
2019-05-06T03:46:34.737Z,85.70
2019-05-06T03:49:23.790Z,85.60
2019-05-06T03:52:14.797Z,85.30
2019-05-06T03:55:03.796Z,85.50
2019-05-06T03:57:47.366Z,85.50
2019-05-06T04:00:25.748Z,86.00
2019-05-06T04:03:24.573Z,85.60
2019-05-06T04:06:04.878Z,85.10
2019-05-06T04:08:47.101Z,84.60
2019-05-06T04:11:29.197Z,84.20
2019-05-06T04:14:18.899Z,84.40
2019-05-06T04:17:07.591Z,85.30
2019-05-06T04:19:53.534Z,85.90
2019-05-06T04:22:59.753Z,85.00
2019-05-06T04:26:18.387Z,84.80
2019-05-06T04:29:07.425Z,85.00
2019-05-06T04:31:55.027Z,85.10
2019-05-06T04:34:53.791Z,86.20
2019-05-06T04:37:47.060Z,86.20
2019-05-06T04:40:32.944Z,85.60
2019-05-06T04:43:26.276Z,84.80
2019-05-06T04:46:16.644Z,84.60
2019-05-06T04:49:14.890Z,84.50
2019-05-06T04:52:05.888Z,84.70
2019-05-06T04:54:54.331Z,85.40
2019-05-06T04:57:44.558Z,85.30
2019-05-06T05:00:34.513Z,85.10
2019-05-06T05:03:25.893Z,85.30
2019-05-06T05:06:07.016Z,84.70
2019-05-06T05:09:02.825Z,84.80
2019-05-06T05:12:22.688Z,85.00
2019-05-06T05:15:47.935Z,84.40
2019-05-06T05:18:42.479Z,84.60
2019-05-06T05:21:34.251Z,84.80
2019-05-06T05:24:26.771Z,85.10
2019-05-06T05:27:34.308Z,84.20
2019-05-06T05:30:27.076Z,83.70
2019-05-06T05:33:13.300Z,84.70
2019-05-06T05:36:07.373Z,84.20
2019-05-06T05:39:03.102Z,84.00
2019-05-06T05:41:54.799Z,84.20
2019-05-06T05:44:52.725Z,84.00
2019-05-06T05:47:47.756Z,84.40
2019-05-06T05:50:52.478Z,84.70
2019-05-06T05:53:49.279Z,84.70
2019-05-06T05:56:40.244Z,84.10
2019-05-06T05:59:36.839Z,84.00
2019-05-06T06:02:47.094Z,84.10
2019-05-06T06:05:32.989Z,84.40
2019-05-06T06:08:22.774Z,84.60
2019-05-06T06:11:06.984Z,84.40
2019-05-06T06:13:46.974Z,84.70
2019-05-06T06:17:05.928Z,85.30
2019-05-06T06:20:30.328Z,85.80
2019-05-06T06:23:41.965Z,84.40
2019-05-06T06:26:34.401Z,86.10
2019-05-06T06:29:15.180Z,85.70
2019-05-06T06:32:23.153Z,85.20
2019-05-06T06:35:19.089Z,85.90
2019-05-06T06:38:33.252Z,86.10
2019-05-06T06:44:42.390Z,84.30
2019-05-06T06:47:48.208Z,84.40
2019-05-06T06:50:32.844Z,84.50
2019-05-06T06:53:15.795Z,84.50
2019-05-06T06:56:18.534Z,84.80
2019-05-06T06:59:23.725Z,84.90
2019-05-06T07:02:19.291Z,84.70
2019-05-06T07:05:28.463Z,84.40
2019-05-06T07:08:32.058Z,84.80
2019-05-06T07:11:07.510Z,84.80
2019-05-06T07:13:53.067Z,85.00
2019-05-06T07:31:22.608Z,85.00
2019-05-06T07:34:19.811Z,84.80
2019-05-06T07:37:12.520Z,85.00
2019-05-06T07:40:17.068Z,85.30
2019-05-06T07:43:02.358Z,85.10
2019-05-06T07:46:03.648Z,85.30
2019-05-06T07:49:05.822Z,85.30
2019-05-06T07:52:05.329Z,85.10
2019-05-06T07:54:48.161Z,84.90
2019-05-06T07:57:52.747Z,84.00
2019-05-06T08:00:53.449Z,83.60
2019-05-06T08:04:23.171Z,83.70
2019-05-06T08:07:46.714Z,84.10
2019-05-06T08:11:02.795Z,84.50
2019-05-06T08:14:13.034Z,84.80
2019-05-06T08:17:06.746Z,85.50
2019-05-06T08:19:48.128Z,85.30
2019-05-06T08:23:29.002Z,84.50
2019-05-06T08:30:34.347Z,84.50
2019-05-06T08:33:52.359Z,84.50
2019-05-06T08:37:13.684Z,83.90
2019-05-06T08:40:26.318Z,85.00
2019-05-06T08:43:16.642Z,84.80
2019-05-06T08:46:03.238Z,84.90
2019-05-06T08:49:14.942Z,85.10
2019-05-06T08:52:12.969Z,84.20
2019-05-06T08:55:06.938Z,84.70
2019-05-06T08:57:59.213Z,85.00
2019-05-06T09:00:57.224Z,84.60
2019-05-06T09:03:37.514Z,84.50
2019-05-06T09:06:30.268Z,84.50
2019-05-06T09:09:12.787Z,84.90
2019-05-06T09:11:53.459Z,84.10
2019-05-06T09:14:36.437Z,85.00
2019-05-06T09:17:18.266Z,85.10
2019-05-06T09:20:02.891Z,84.90
2019-05-06T09:22:58.519Z,85.20
2019-05-06T09:26:08.861Z,85.30
2019-05-06T09:32:49.001Z,85.30
2019-05-06T09:35:42.255Z,85.20
2019-05-06T09:38:33.975Z,85.10
2019-05-06T09:41:47.092Z,85.10
2019-05-06T09:44:29.549Z,86.10
2019-05-06T09:47:33.424Z,85.30
2019-05-06T09:50:32.940Z,85.50
2019-05-06T09:53:18.530Z,85.10
2019-05-06T09:56:24.902Z,85.40
2019-05-06T09:59:06.710Z,85.10
2019-05-06T10:01:53.806Z,85.30
2019-05-06T10:04:36.299Z,84.70
2019-05-06T10:07:24.129Z,84.80
2019-05-06T10:10:13.323Z,84.70
2019-05-06T10:13:03.479Z,85.10
2019-05-06T10:15:52.848Z,85.50
2019-05-06T10:18:36.455Z,84.60
2019-05-06T10:21:17.589Z,84.80
2019-05-06T10:24:08.122Z,84.80
2019-05-06T10:26:58.191Z,84.20
2019-05-06T10:29:48.200Z,84.60
2019-05-06T10:32:42.927Z,84.30
2019-05-06T10:35:42.897Z,85.40
2019-05-06T10:38:55.066Z,85.20
2019-05-06T10:41:42.263Z,85.90
2019-05-06T10:45:18.294Z,85.00
2019-05-06T10:48:04.272Z,85.10
2019-05-06T10:50:55.675Z,85.20
2019-05-06T10:53:39.238Z,85.00
2019-05-06T10:56:49.804Z,84.80
2019-05-06T10:59:21.913Z,84.80
2019-05-06T11:02:19.343Z,85.20
2019-05-06T11:05:08.117Z,84.20
2019-05-06T11:07:54.354Z,83.80
2019-05-06T11:10:41.162Z,84.10
2019-05-06T11:13:20.235Z,84.60
2019-05-06T11:16:03.900Z,84.70
2019-05-06T11:18:48.609Z,84.80
2019-05-06T11:21:38.522Z,84.90
2019-05-06T11:24:23.531Z,84.80
2019-05-06T11:27:07.538Z,85.60
2019-05-06T11:29:53.084Z,85.50
2019-05-06T11:33:04.466Z,85.50
2019-05-06T11:36:02.600Z,85.50
2019-05-06T11:38:44.259Z,84.70
2019-05-06T11:41:26.246Z,84.00
2019-05-06T11:44:17.918Z,84.00
2019-05-06T11:47:05.715Z,84.20
2019-05-06T11:49:48.764Z,83.80
2019-05-06T11:52:38.736Z,84.50
2019-05-06T11:55:31.650Z,85.20
2019-05-06T11:58:32.691Z,85.20
2019-05-06T12:01:20.055Z,84.70
2019-05-06T12:04:05.230Z,84.80
2019-05-06T12:06:47.798Z,84.60
2019-05-06T12:09:55.577Z,85.50
2019-05-06T12:12:38.518Z,85.00
2019-05-06T12:15:23.414Z,85.20
2019-05-06T12:18:12.540Z,84.60
2019-05-06T12:21:18.894Z,84.20
2019-05-06T12:24:12.247Z,84.70
2019-05-06T12:26:58.962Z,84.40
2019-05-06T12:29:44.563Z,84.50
2019-05-06T12:32:45.599Z,84.80
2019-05-06T12:35:34.472Z,84.40
2019-05-06T12:38:43.915Z,84.70
2019-05-06T12:41:28.690Z,84.50
2019-05-06T12:44:16.842Z,84.80
2019-05-06T12:47:32.639Z,85.00
2019-05-06T12:50:23.787Z,84.80
2019-05-06T12:53:13.161Z,85.00
2019-05-06T12:56:21.290Z,84.60
2019-05-06T12:59:15.708Z,84.70
2019-05-06T13:02:03.233Z,84.80
2019-05-06T13:04:59.655Z,85.40
2019-05-06T13:08:05.500Z,84.30
2019-05-06T13:11:12.974Z,84.80
2019-05-06T13:14:37.265Z,84.70
2019-05-06T13:21:47.674Z,84.80
2019-05-06T13:24:48.248Z,85.20
2019-05-06T13:27:43.995Z,85.10
2019-05-06T13:30:46.508Z,84.90
2019-05-06T13:34:03.758Z,85.20
2019-05-06T13:37:12.714Z,85.00
2019-05-06T13:40:02.946Z,85.80
2019-05-06T13:43:15.151Z,84.90
2019-05-06T13:46:12.254Z,85.10
2019-05-06T13:49:06.551Z,85.30
2019-05-06T13:52:01.004Z,85.50
2019-05-06T13:54:55.884Z,85.50
2019-05-06T13:58:22.970Z,85.40
2019-05-06T14:05:07.591Z,86.00
2019-05-06T14:08:28.197Z,85.20
2019-05-06T14:11:41.868Z,85.10
2019-05-06T14:14:32.248Z,84.90
2019-05-06T14:17:22.332Z,84.50
2019-05-06T14:20:26.671Z,83.70
2019-05-06T14:23:18.528Z,84.20
2019-05-06T14:26:24.684Z,84.40
2019-05-06T14:29:34.372Z,84.70
2019-05-06T14:32:39.686Z,84.60
2019-05-06T14:35:32.589Z,84.60
2019-05-06T14:38:33.890Z,84.90
2019-05-06T14:41:32.761Z,84.90
2019-05-06T14:44:29.564Z,85.20
2019-05-06T14:52:06.148Z,84.80
2019-05-06T15:07:15.141Z,84.60
2019-05-06T15:11:02.890Z,85.10
2019-05-06T15:14:42.695Z,85.10
2019-05-06T15:25:22.138Z,85.50
2019-05-06T15:28:22.744Z,85.30
2019-05-06T15:38:15.546Z,83.90
2019-05-06T15:41:02.097Z,84.20
2019-05-06T15:44:07.383Z,84.70
2019-05-06T15:46:49.764Z,84.50
2019-05-06T15:49:41.934Z,84.90
2019-05-06T15:52:39.043Z,85.00
2019-05-06T15:58:35.196Z,85.00
2019-05-06T16:01:20.537Z,85.20
2019-05-06T16:04:09.416Z,85.10
2019-05-06T16:06:56.093Z,85.10
2019-05-06T16:09:42.816Z,85.10
2019-05-06T16:12:35.312Z,84.40
2019-05-06T16:15:32.521Z,83.90
2019-05-06T16:18:32.725Z,83.90
2019-05-06T16:21:22.874Z,84.20
2019-05-06T16:24:13.675Z,84.10
2019-05-06T16:26:54.914Z,84.40
2019-05-06T16:29:42.928Z,84.70
2019-05-06T16:32:26.995Z,85.00
2019-05-06T16:35:14.286Z,85.10
2019-05-06T16:37:59.534Z,85.00
2019-05-06T16:40:45.454Z,85.10
2019-05-06T16:43:37.071Z,85.00
2019-05-06T16:46:23.063Z,83.70
2019-05-06T16:49:08.271Z,84.20
2019-05-06T16:52:02.554Z,83.60
2019-05-06T16:54:40.074Z,83.50
2019-05-06T16:57:26.700Z,84.10
2019-05-06T17:00:09.892Z,84.10
2019-05-06T17:03:09.046Z,84.20
2019-05-06T17:06:28.039Z,85.00
2019-05-06T17:09:19.885Z,84.80
2019-05-06T17:11:55.046Z,84.60
2019-05-06T17:14:35.590Z,84.80
2019-05-06T17:17:19.495Z,85.20
2019-05-06T17:20:03.093Z,84.90
2019-05-06T17:22:47.930Z,85.00
2019-05-06T17:25:28.327Z,84.60
2019-05-06T17:28:26.547Z,84.50
2019-05-06T17:31:32.274Z,84.40
2019-05-06T17:34:13.055Z,84.20
2019-05-06T17:36:55.242Z,84.30
2019-05-06T17:39:38.462Z,85.60
2019-05-06T17:42:22.631Z,84.80
2019-05-06T17:45:03.718Z,84.90
2019-05-06T17:47:52.856Z,84.90
2019-05-06T17:50:35.647Z,84.80
2019-05-06T17:53:22.880Z,85.10
2019-05-06T17:56:05.513Z,84.80
2019-05-06T17:58:50.290Z,85.00
2019-05-06T18:01:34.885Z,85.10
2019-05-06T18:04:16.607Z,85.00
2019-05-06T18:06:58.412Z,85.00
2019-05-06T18:09:39.435Z,85.00
2019-05-06T18:12:23.607Z,84.60
2019-05-06T18:15:06.333Z,84.20
2019-05-06T18:17:47.558Z,84.60
2019-05-06T18:20:29.081Z,84.40
2019-05-06T18:23:09.540Z,84.80
2019-05-06T18:25:54.897Z,85.40
2019-05-06T18:28:39.242Z,85.00
2019-05-06T18:31:22.105Z,84.90
2019-05-06T18:34:06.571Z,84.40
2019-05-06T18:36:48.402Z,85.10
2019-05-06T18:39:33.742Z,85.20
2019-05-06T18:42:19.918Z,85.00
2019-05-06T18:44:57.443Z,85.00
2019-05-06T18:47:39.558Z,84.70
2019-05-06T18:50:19.370Z,84.60
2019-05-06T18:53:02.413Z,85.10
2019-05-06T18:55:43.296Z,84.80
2019-05-06T18:58:25.952Z,85.00
2019-05-06T19:01:07.949Z,85.10
2019-05-06T19:03:56.580Z,85.00
2019-05-06T19:06:37.639Z,85.40
2019-05-06T19:09:52.290Z,85.40
2019-05-06T19:12:40.675Z,85.30
2019-05-06T19:15:13.534Z,85.20
2019-05-06T19:17:57.503Z,85.10
2019-05-06T19:20:39.345Z,85.30
2019-05-06T19:23:19.680Z,85.10
2019-05-06T19:26:03.307Z,85.30
2019-05-06T19:28:46.896Z,85.00
2019-05-06T19:31:29.802Z,85.30
2019-05-06T19:34:12.962Z,85.30
2019-05-06T19:36:53.388Z,85.20
2019-05-06T19:39:33.245Z,85.10
2019-05-06T19:42:15.807Z,85.20
2019-05-06T19:44:56.973Z,85.70
2019-05-06T19:47:38.299Z,84.90
2019-05-06T19:50:20.754Z,85.30
2019-05-06T19:53:03.603Z,85.40
2019-05-06T19:55:47.856Z,85.40
2019-05-06T19:58:27.962Z,85.40
2019-05-06T20:01:08.508Z,85.40
2019-05-06T20:03:47.498Z,85.00
2019-05-06T20:06:49.719Z,85.20
2019-05-06T20:09:52.175Z,85.00
2019-05-06T20:12:44.743Z,84.60
2019-05-06T20:15:45.914Z,84.20
2019-05-06T20:18:24.185Z,84.30
2019-05-06T20:21:08.767Z,84.10
2019-05-06T20:23:48.190Z,84.00
2019-05-06T20:26:32.289Z,84.20
2019-05-06T20:29:15.175Z,84.40
2019-05-06T20:31:55.233Z,84.80
2019-05-06T20:34:37.419Z,84.40
2019-05-06T20:37:19.268Z,85.00
2019-05-06T20:39:57.774Z,84.80
2019-05-06T20:42:39.534Z,85.30
2019-05-06T20:45:24.300Z,85.80
2019-05-06T20:48:08.908Z,85.10
2019-05-06T20:50:52.347Z,85.00
2019-05-06T20:53:33.793Z,85.10
2019-05-06T20:56:14.738Z,84.60
2019-05-06T20:58:56.017Z,84.40
2019-05-06T21:01:37.089Z,84.20
2019-05-06T21:04:16.538Z,84.50
2019-05-06T21:06:58.981Z,84.40
2019-05-06T21:09:40.414Z,84.40
2019-05-06T21:12:21.872Z,84.70
2019-05-06T21:15:04.610Z,84.60
2019-05-06T21:17:45.274Z,84.80
2019-05-06T21:20:26.463Z,84.30
2019-05-06T21:23:08.085Z,84.30
2019-05-06T21:25:52.217Z,84.20
2019-05-06T21:28:34.342Z,83.90
2019-05-06T21:31:16.280Z,83.70
2019-05-06T21:33:55.861Z,83.60
2019-05-06T21:36:38.243Z,83.40
2019-05-06T21:39:18.786Z,82.80
2019-05-06T21:42:02.116Z,82.90
2019-05-06T21:44:43.858Z,83.10
2019-05-06T21:47:26.944Z,82.80
2019-05-06T21:50:11.923Z,83.30
2019-05-06T21:52:50.804Z,83.50
2019-05-06T21:55:32.744Z,83.10
2019-05-06T21:58:16.283Z,82.90
2019-05-06T22:01:09.081Z,82.70
2019-05-06T22:03:49.022Z,82.40
2019-05-06T22:06:29.221Z,82.50
2019-05-06T22:09:09.436Z,82.70
2019-05-06T22:11:52.930Z,82.20
2019-05-06T22:14:36.287Z,82.00
2019-05-06T22:17:23.413Z,82.00
2019-05-06T22:20:23.566Z,81.80
2019-05-06T22:23:05.349Z,81.20
2019-05-06T22:25:48.968Z,80.80
2019-05-06T22:28:33.995Z,81.00
2019-05-06T22:31:19.194Z,79.80
2019-05-06T22:34:00.830Z,80.60
2019-05-06T22:36:41.861Z,80.50
2019-05-06T22:39:25.945Z,81.00
2019-05-06T22:42:07.436Z,81.30
2019-05-06T22:44:48.883Z,81.20
2019-05-06T22:47:29.674Z,81.40
2019-05-06T22:50:13.124Z,81.20
2019-05-06T22:52:57.962Z,81.10
2019-05-06T22:55:37.915Z,81.00
2019-05-06T22:58:22.792Z,81.10
2019-05-06T23:01:04.615Z,80.90
2019-05-06T23:03:55.303Z,81.20
2019-05-06T23:06:41.907Z,81.40
2019-05-06T23:09:26.942Z,81.20
2019-05-06T23:12:08.351Z,81.00
2019-05-06T23:14:49.418Z,80.10
2019-05-06T23:17:34.174Z,80.30
2019-05-06T23:20:12.577Z,80.00
2019-05-06T23:22:53.619Z,80.70
2019-05-06T23:25:36.207Z,80.30
2019-05-06T23:28:22.786Z,80.50
2019-05-06T23:31:03.889Z,80.40
2019-05-06T23:33:49.828Z,81.20
2019-05-06T23:36:31.925Z,80.80
2019-05-06T23:40:03.343Z,80.70
2019-05-06T23:43:12.743Z,80.80
2019-05-06T23:46:25.684Z,79.90
2019-05-06T23:49:39.218Z,80.00
2019-05-06T23:52:53.171Z,79.60
2019-05-06T23:56:03.435Z,80.70
2019-05-06T23:58:48.909Z,79.50
